Terminal Aerodrome Forecast
Issued by NWS Tuscon, AZ

Home | Current Version | Previous Version | Text Only | Print | Product List | Glossary On
Versions: 1 2 3 4 5 6 7 8 9 10 11
000
FTUS45 KTWC 130520
TAFTUS
TAF
KTUS 130520Z 1306/1406 12013KT P6SM FEW150
     FM131900 13005KT P6SM SKC
     FM140000 28005KT P6SM SKC
     FM140300 20005KT P6SM SKC=

USA.gov is the U.S. government's official web portal to all federal, state and local government web resources and services.